Terminal Aerodrome Forecast
Issued by NWS

Home | Current Version | Previous Version | Graphics & Text | Print | Product List | Glossary On
Versions: 1 2 3 4 5 6 7 8 9 10 11 12 13 14 15 16 17 18 19 20 21 22 23 24 25 26
357
FTUS43 KGRB 201310 AAA
TAFAUW
TAF AMD
KAUW 201310Z 2013/2112 10014G22KT P6SM SCT050 OVC100
      TEMPO 2014/2016 BKN050
     FM201600 09014G23KT P6SM SCT022 OVC045
      TEMPO 2016/2018 5SM -SHRA OVC022
     FM201800 09012G21KT 3SM -SHRA BR SCT008 OVC015
     FM202100 08012G18KT 2SM -SHRA BR SCT004 OVC008
     FM210300 11008KT 4SM -SHRA BR OVC004=

USA.gov is the U.S. government's official web portal to all federal, state and local government web resources and services.